sensor_id;sensor_type;location;lat;lon;timestamp;pressure;altitude;pressure_sealevel;temperature;humidity
42587;BME280;28216;53.362;-6.288;2022-10-16T00:01:33;99646.34;;;8.15;100.00
42587;BME280;28216;53.362;-6.288;2022-10-16T00:04:00;99648.97;;;8.15;100.00
42587;BME280;28216;53.362;-6.288;2022-10-16T00:06:27;99655.16;;;8.14;100.00
42587;BME280;28216;53.362;-6.288;2022-10-16T00:08:53;99672.81;;;8.12;100.00
42587;BME280;28216;53.362;-6.288;2022-10-16T00:11:25;99665.94;;;8.11;100.00
42587;BME280;28216;53.362;-6.288;2022-10-16T00:13:54;99673.78;;;8.11;100.00
42587;BME280;28216;53.362;-6.288;2022-10-16T00:16:20;99681.78;;;8.09;100.00
42587;BME280;28216;53.362;-6.288;2022-10-16T00:18:45;99676.56;;;8.09;100.00
42587;BME280;28216;53.362;-6.288;2022-10-16T00:21:17;99692.22;;;8.09;100.00
42587;BME280;28216;53.362;-6.288;2022-10-16T00:23:43;99691.41;;;8.09;100.00
42587;BME280;28216;53.362;-6.288;2022-10-16T00:26:12;99694.84;;;8.09;100.00
42587;BME280;28216;53.362;-6.288;2022-10-16T00:28:38;99692.06;;;8.11;100.00
42587;BME280;28216;53.362;-6.288;2022-10-16T00:31:06;99698.91;;;8.12;100.00
42587;BME280;28216;53.362;-6.288;2022-10-16T00:33:32;99697.13;;;8.12;100.00
42587;BME280;28216;53.362;-6.288;2022-10-16T00:36:01;99704.28;;;8.10;100.00
42587;BME280;28216;53.362;-6.288;2022-10-16T00:38:30;99706.09;;;8.10;100.00
42587;BME280;28216;53.362;-6.288;2022-10-16T00:40:59;99709.53;;;8.10;100.00
42587;BME280;28216;53.362;-6.288;2022-10-16T00:43:42;99712.13;;;8.10;100.00
42587;BME280;28216;53.362;-6.288;2022-10-16T00:49:03;99716.38;;;8.11;100.00
42587;BME280;28216;53.362;-6.288;2022-10-16T00:51:48;99720.44;;;8.14;100.00
42587;BME280;28216;53.362;-6.288;2022-10-16T00:54:19;99725.81;;;8.12;100.00
42587;BME280;28216;53.362;-6.288;2022-10-16T00:56:46;99733.66;;;8.12;100.00
42587;BME280;28216;53.362;-6.288;2022-10-16T00:59:24;99733.50;;;8.14;100.00
42587;BME280;28216;53.362;-6.288;2022-10-16T01:01:51;99728.28;;;8.14;100.00
42587;BME280;28216;53.362;-6.288;2022-10-16T01:04:17;99739.34;;;8.16;100.00
42587;BME280;28216;53.362;-6.288;2022-10-16T01:09:29;99732.34;;;8.16;100.00
42587;BME280;28216;53.362;-6.288;2022-10-16T01:12:19;99748.81;;;8.17;100.00
42587;BME280;28216;53.362;-6.288;2022-10-16T01:14:53;99743.13;;;8.13;100.00
42587;BME280;28216;53.362;-6.288;2022-10-16T01:17:38;99751.78;;;8.14;100.00
42587;BME280;28216;53.362;-6.288;2022-10-16T01:25:29;99747.69;;;8.11;100.00
42587;BME280;28216;53.362;-6.288;2022-10-16T01:27:57;99753.25;;;8.08;100.00
42587;BME280;28216;53.362;-6.288;2022-10-16T01:30:26;99759.28;;;8.09;100.00
42587;BME280;28216;53.362;-6.288;2022-10-16T01:35:28;99764.69;;;8.07;100.00
42587;BME280;28216;53.362;-6.288;2022-10-16T01:40:32;99776.91;;;8.07;100.00
42587;BME280;28216;53.362;-6.288;2022-10-16T01:43:03;99768.28;;;8.06;100.00
42587;BME280;28216;53.362;-6.288;2022-10-16T01:45:31;99780.84;;;8.03;100.00
42587;BME280;28216;53.362;-6.288;2022-10-16T01:48:00;99788.84;;;8.01;100.00
42587;BME280;28216;53.362;-6.288;2022-10-16T01:50:31;99791.63;;;8.00;100.00
42587;BME280;28216;53.362;-6.288;2022-10-16T01:52:59;99804.03;;;7.97;100.00
42587;BME280;28216;53.362;-6.288;2022-10-16T01:55:29;99814.47;;;7.97;100.00
42587;BME280;28216;53.362;-6.288;2022-10-16T01:57:58;99808.59;;;7.95;100.00
42587;BME280;28216;53.362;-6.288;2022-10-16T02:00:26;99815.94;;;7.92;100.00
42587;BME280;28216;53.362;-6.288;2022-10-16T02:02:53;99811.53;;;7.92;100.00
42587;BME280;28216;53.362;-6.288;2022-10-16T02:05:30;99819.53;;;7.91;100.00
42587;BME280;28216;53.362;-6.288;2022-10-16T02:07:56;99824.75;;;7.91;100.00
42587;BME280;28216;53.362;-6.288;2022-10-16T02:10:23;99824.75;;;7.91;100.00
42587;BME280;28216;53.362;-6.288;2022-10-16T02:13:06;99833.38;;;7.91;100.00
42587;BME280;28216;53.362;-6.288;2022-10-16T02:15:34;99830.28;;;7.88;100.00
42587;BME280;28216;53.362;-6.288;2022-10-16T02:18:02;99835.69;;;7.86;100.00
42587;BME280;28216;53.362;-6.288;2022-10-16T02:20:30;99842.84;;;7.84;100.00
42587;BME280;28216;53.362;-6.288;2022-10-16T02:22:58;99843.84;;;7.83;100.00
42587;BME280;28216;53.362;-6.288;2022-10-16T02:25:28;99856.06;;;7.83;100.00
42587;BME280;28216;53.362;-6.288;2022-10-16T02:30:37;99862.44;;;7.80;100.00
42587;BME280;28216;53.362;-6.288;2022-10-16T02:33:07;99863.56;;;7.78;100.00
42587;BME280;28216;53.362;-6.288;2022-10-16T02:35:35;99864.56;;;7.77;100.00
42587;BME280;28216;53.362;-6.288;2022-10-16T02:38:01;99870.75;;;7.76;100.00
42587;BME280;28216;53.362;-6.288;2022-10-16T02:40:28;99874.50;;;7.73;100.00
42587;BME280;28216;53.362;-6.288;2022-10-16T02:42:54;99878.25;;;7.71;100.00
42587;BME280;28216;53.362;-6.288;2022-10-16T02:45:22;99887.06;;;7.70;100.00
42587;BME280;28216;53.362;-6.288;2022-10-16T02:47:48;99885.41;;;7.69;100.00
42587;BME280;28216;53.362;-6.288;2022-10-16T02:50:14;99887.38;;;7.67;100.00
42587;BME280;28216;53.362;-6.288;2022-10-16T02:52:39;99889.16;;;7.66;100.00
42587;BME280;28216;53.362;-6.288;2022-10-16T02:55:05;99900.25;;;7.68;100.00
42587;BME280;28216;53.362;-6.288;2022-10-16T02:57:31;99906.63;;;7.65;100.00
42587;BME280;28216;53.362;-6.288;2022-10-16T02:59:57;99912.66;;;7.66;100.00
42587;BME280;28216;53.362;-6.288;2022-10-16T03:02:25;99923.09;;;7.66;100.00
42587;BME280;28216;53.362;-6.288;2022-10-16T03:04:51;99913.47;;;7.67;100.00
42587;BME280;28216;53.362;-6.288;2022-10-16T03:07:16;99922.44;;;7.64;100.00
42587;BME280;28216;53.362;-6.288;2022-10-16T03:09:42;99930.41;;;7.62;100.00
42587;BME280;28216;53.362;-6.288;2022-10-16T03:12:11;99931.25;;;7.63;100.00
42587;BME280;28216;53.362;-6.288;2022-10-16T03:14:39;99934.81;;;7.62;100.00
42587;BME280;28216;53.362;-6.288;2022-10-16T03:17:08;99942.00;;;7.60;100.00
42587;BME280;28216;53.362;-6.288;2022-10-16T03:19:33;99938.56;;;7.59;100.00
42587;BME280;28216;53.362;-6.288;2022-10-16T03:22:01;99944.59;;;7.60;100.00
42587;BME280;28216;53.362;-6.288;2022-10-16T03:24:26;99949.81;;;7.60;100.00
42587;BME280;28216;53.362;-6.288;2022-10-16T03:26:52;99953.41;;;7.59;99.61
42587;BME280;28216;53.362;-6.288;2022-10-16T03:29:17;99957.00;;;7.58;99.39
42587;BME280;28216;53.362;-6.288;2022-10-16T03:31:43;99957.97;;;7.57;99.10
42587;BME280;28216;53.362;-6.288;2022-10-16T03:34:08;99953.72;;;7.56;99.14
42587;BME280;28216;53.362;-6.288;2022-10-16T03:36:34;99969.38;;;7.56;98.81
42587;BME280;28216;53.362;-6.288;2022-10-16T03:38:59;99977.03;;;7.57;98.61
42587;BME280;28216;53.362;-6.288;2022-10-16T03:41:25;99977.19;;;7.56;98.34
42587;BME280;28216;53.362;-6.288;2022-10-16T03:43:50;99985.03;;;7.56;98.23
42587;BME280;28216;53.362;-6.288;2022-10-16T03:46:16;99981.59;;;7.55;97.88
42587;BME280;28216;53.362;-6.288;2022-10-16T03:48:41;100003.13;;;7.57;97.79
42587;BME280;28216;53.362;-6.288;2022-10-16T03:51:07;100003.94;;;7.58;97.85
42587;BME280;28216;53.362;-6.288;2022-10-16T03:53:32;100011.78;;;7.58;97.75
42587;BME280;28216;53.362;-6.288;2022-10-16T03:55:58;100013.56;;;7.57;97.56
42587;BME280;28216;53.362;-6.288;2022-10-16T03:58:23;100005.91;;;7.56;97.44
42587;BME280;28216;53.362;-6.288;2022-10-16T04:00:49;100016.31;;;7.56;97.16
42587;BME280;28216;53.362;-6.288;2022-10-16T04:03:15;100024.16;;;7.56;97.42
42587;BME280;28216;53.362;-6.288;2022-10-16T04:05:41;100031.00;;;7.57;97.42
42587;BME280;28216;53.362;-6.288;2022-10-16T04:08:06;100039.81;;;7.56;96.97
42587;BME280;28216;53.362;-6.288;2022-10-16T04:10:32;100058.06;;;7.56;97.20
42587;BME280;28216;53.362;-6.288;2022-10-16T04:12:57;100072.91;;;7.55;97.24
42587;BME280;28216;53.362;-6.288;2022-10-16T04:15:24;100058.06;;;7.56;97.18
42587;BME280;28216;53.362;-6.288;2022-10-16T04:17:52;100075.19;;;7.58;97.03
42587;BME280;28216;53.362;-6.288;2022-10-16T04:20:17;100064.91;;;7.57;96.88
42587;BME280;28216;53.362;-6.288;2022-10-16T04:22:43;100081.53;;;7.56;96.68
42587;BME280;28216;53.362;-6.288;2022-10-16T04:25:09;100084.97;;;7.56;96.82
42587;BME280;28216;53.362;-6.288;2022-10-16T04:27:36;100093.63;;;7.57;96.81
42587;BME280;28216;53.362;-6.288;2022-10-16T04:30:02;100106.34;;;7.60;96.49
42587;BME280;28216;53.362;-6.288;2022-10-16T04:32:27;100100.47;;;7.58;96.53
42587;BME280;28216;53.362;-6.288;2022-10-16T04:34:53;100116.13;;;7.58;96.49
42587;BME280;28216;53.362;-6.288;2022-10-16T04:37:19;100116.13;;;7.58;96.45
42587;BME280;28216;53.362;-6.288;2022-10-16T04:39:48;100143.84;;;7.59;96.51
42587;BME280;28216;53.362;-6.288;2022-10-16T04:42:13;100146.75;;;7.56;96.24
42587;BME280;28216;53.362;-6.288;2022-10-16T04:44:39;100146.75;;;7.56;96.62
42587;BME280;28216;53.362;-6.288;2022-10-16T04:47:04;100155.56;;;7.55;96.25
42587;BME280;28216;53.362;-6.288;2022-10-16T04:49:29;100154.75;;;7.54;96.27
42587;BME280;28216;53.362;-6.288;2022-10-16T04:51:55;100153.94;;;7.54;96.36
42587;BME280;28216;53.362;-6.288;2022-10-16T04:54:20;100166.00;;;7.55;96.18
42587;BME280;28216;53.362;-6.288;2022-10-16T04:56:46;100170.53;;;7.53;96.32
42587;BME280;28216;53.362;-6.288;2022-10-16T04:59:14;100170.53;;;7.53;96.38
42587;BME280;28216;53.362;-6.288;2022-10-16T05:01:40;100171.53;;;7.52;96.38
42587;BME280;28216;53.362;-6.288;2022-10-16T05:04:05;100167.44;;;7.49;96.47
42587;BME280;28216;53.362;-6.288;2022-10-16T05:06:31;100177.03;;;7.49;96.36
42587;BME280;28216;53.362;-6.288;2022-10-16T05:08:56;100179.81;;;7.47;96.28
42587;BME280;28216;53.362;-6.288;2022-10-16T05:11:22;100179.28;;;7.44;96.47
42587;BME280;28216;53.362;-6.288;2022-10-16T05:13:47;100169.81;;;7.43;96.40
42587;BME280;28216;53.362;-6.288;2022-10-16T05:16:13;100163.09;;;7.40;96.51
42587;BME280;28216;53.362;-6.288;2022-10-16T05:18:38;100161.31;;;7.41;96.36
42587;BME280;28216;53.362;-6.288;2022-10-16T05:21:04;100158.72;;;7.41;96.38
42587;BME280;28216;53.362;-6.288;2022-10-16T05:23:31;100159.00;;;7.38;96.51
42587;BME280;28216;53.362;-6.288;2022-10-16T05:25:58;100152.16;;;7.37;96.46
42587;BME280;28216;53.362;-6.288;2022-10-16T05:28:27;100166.00;;;7.37;96.70
42587;BME280;28216;53.362;-6.288;2022-10-16T05:30:54;100167.81;;;7.37;96.66
42587;BME280;28216;53.362;-6.288;2022-10-16T05:33:20;100174.97;;;7.34;96.49
42587;BME280;28216;53.362;-6.288;2022-10-16T05:35:46;100188.00;;;7.34;97.01
42587;BME280;28216;53.362;-6.288;2022-10-16T05:38:12;100184.41;;;7.36;97.02
42587;BME280;28216;53.362;-6.288;2022-10-16T05:40:37;100184.41;;;7.36;97.01
42587;BME280;28216;53.362;-6.288;2022-10-16T05:43:03;100182.63;;;7.36;97.18
42587;BME280;28216;53.362;-6.288;2022-10-16T05:45:28;100180.03;;;7.36;97.14
42587;BME280;28216;53.362;-6.288;2022-10-16T05:47:54;100186.22;;;7.35;97.08
42587;BME280;28216;53.362;-6.288;2022-10-16T05:50:19;100191.44;;;7.35;96.99
42587;BME280;28216;53.362;-6.288;2022-10-16T05:52:45;100201.84;;;7.35;96.93
42587;BME280;28216;53.362;-6.288;2022-10-16T05:55:10;100213.09;;;7.36;97.18
42587;BME280;28216;53.362;-6.288;2022-10-16T05:57:36;100199.41;;;7.33;97.27
42587;BME280;28216;53.362;-6.288;2022-10-16T06:00:02;100207.06;;;7.35;97.05
42587;BME280;28216;53.362;-6.288;2022-10-16T06:02:27;100215.06;;;7.33;97.22
42587;BME280;28216;53.362;-6.288;2022-10-16T06:04:53;100218.47;;;7.34;97.35
42587;BME280;28216;53.362;-6.288;2022-10-16T06:07:19;100230.03;;;7.31;97.15
42587;BME280;28216;53.362;-6.288;2022-10-16T06:09:48;100232.50;;;7.33;97.50
42587;BME280;28216;53.362;-6.288;2022-10-16T06:12:13;100229.06;;;7.32;97.40
42587;BME280;28216;53.362;-6.288;2022-10-16T06:14:39;100234.28;;;7.32;97.45
42587;BME280;28216;53.362;-6.288;2022-10-16T06:17:04;100244.72;;;7.32;97.67
42587;BME280;28216;53.362;-6.288;2022-10-16T06:19:30;100236.88;;;7.32;97.51
42587;BME280;28216;53.362;-6.288;2022-10-16T06:21:56;100236.22;;;7.30;97.47
42587;BME280;28216;53.362;-6.288;2022-10-16T06:24:23;100243.88;;;7.32;97.71
42587;BME280;28216;53.362;-6.288;2022-10-16T06:26:48;100251.03;;;7.30;97.80
42587;BME280;28216;53.362;-6.288;2022-10-16T06:29:14;100247.75;;;7.28;98.00
42587;BME280;28216;53.362;-6.288;2022-10-16T06:31:39;100253.13;;;7.26;98.13
42587;BME280;28216;53.362;-6.288;2022-10-16T06:34:05;100252.47;;;7.24;98.29
42587;BME280;28216;53.362;-6.288;2022-10-16T06:36:34;100256.19;;;7.22;98.38
42587;BME280;28216;53.362;-6.288;2022-10-16T06:39:00;100264.16;;;7.20;98.58
42587;BME280;28216;53.362;-6.288;2022-10-16T06:41:25;100266.09;;;7.18;98.40
42587;BME280;28216;53.362;-6.288;2022-10-16T06:43:51;100271.47;;;7.17;98.87
42587;BME280;28216;53.362;-6.288;2022-10-16T06:46:20;100285.47;;;7.16;98.75
42587;BME280;28216;53.362;-6.288;2022-10-16T06:48:45;100284.78;;;7.14;98.76
42587;BME280;28216;53.362;-6.288;2022-10-16T06:51:16;100303.88;;;7.14;98.85
42587;BME280;28216;53.362;-6.288;2022-10-16T06:53:44;100305.66;;;7.14;99.01
42587;BME280;28216;53.362;-6.288;2022-10-16T06:56:13;100309.22;;;7.13;98.97
42587;BME280;28216;53.362;-6.288;2022-10-16T06:58:39;100322.25;;;7.13;99.22
42587;BME280;28216;53.362;-6.288;2022-10-16T07:01:06;100323.22;;;7.12;99.39
42587;BME280;28216;53.362;-6.288;2022-10-16T07:03:31;100331.88;;;7.12;99.33
42587;BME280;28216;53.362;-6.288;2022-10-16T07:06:01;100351.09;;;7.11;100.00
42587;BME280;28216;53.362;-6.288;2022-10-16T07:08:27;100349.16;;;7.13;99.91
42587;BME280;28216;53.362;-6.288;2022-10-16T07:11:07;100352.97;;;7.19;100.00
42587;BME280;28216;53.362;-6.288;2022-10-16T07:13:34;100362.94;;;7.23;100.00
42587;BME280;28216;53.362;-6.288;2022-10-16T07:16:17;100363.19;;;7.30;99.56
42587;BME280;28216;53.362;-6.288;2022-10-16T07:18:44;100367.28;;;7.32;99.71
42587;BME280;28216;53.362;-6.288;2022-10-16T07:21:14;100371.06;;;7.38;99.74
42587;BME280;28216;53.362;-6.288;2022-10-16T07:23:40;100367.09;;;7.44;99.47
42587;BME280;28216;53.362;-6.288;2022-10-16T07:26:06;100386.41;;;7.51;99.61
42587;BME280;28216;53.362;-6.288;2022-10-16T07:28:33;100393.47;;;7.58;100.00
42587;BME280;28216;53.362;-6.288;2022-10-16T07:31:03;100399.88;;;7.64;100.00
42587;BME280;28216;53.362;-6.288;2022-10-16T07:33:29;100411.66;;;7.68;100.00
42587;BME280;28216;53.362;-6.288;2022-10-16T07:35:55;100408.47;;;7.74;100.00
42587;BME280;28216;53.362;-6.288;2022-10-16T07:38:21;100410.31;;;7.82;99.76
42587;BME280;28216;53.362;-6.288;2022-10-16T07:40:47;100417.56;;;7.88;100.00
42587;BME280;28216;53.362;-6.288;2022-10-16T07:43:13;100423.97;;;7.93;99.84
42587;BME280;28216;53.362;-6.288;2022-10-16T07:45:49;100433.66;;;8.01;99.97
42587;BME280;28216;53.362;-6.288;2022-10-16T07:48:16;100441.84;;;8.06;99.85
42587;BME280;28216;53.362;-6.288;2022-10-16T07:50:42;100458.72;;;8.12;100.00
42587;BME280;28216;53.362;-6.288;2022-10-16T07:53:08;100460.75;;;8.18;100.00
42587;BME280;28216;53.362;-6.288;2022-10-16T07:55:34;100464.53;;;8.23;99.86
42587;BME280;28216;53.362;-6.288;2022-10-16T07:57:59;100473.25;;;8.32;99.37
42587;BME280;28216;53.362;-6.288;2022-10-16T08:00:25;100477.09;;;8.38;99.16
42587;BME280;28216;53.362;-6.288;2022-10-16T08:02:50;100485.44;;;8.41;99.11
42587;BME280;28216;53.362;-6.288;2022-10-16T08:05:15;100490.22;;;8.46;99.05
42587;BME280;28216;53.362;-6.288;2022-10-16T08:07:41;100493.19;;;8.51;98.83
42587;BME280;28216;53.362;-6.288;2022-10-16T08:10:09;100495.34;;;8.55;98.76
42587;BME280;28216;53.362;-6.288;2022-10-16T08:12:37;100495.72;;;8.60;98.80
42587;BME280;28216;53.362;-6.288;2022-10-16T08:15:03;100493.31;;;8.67;98.48
42587;BME280;28216;53.362;-6.288;2022-10-16T08:17:28;100493.66;;;8.72;98.41
42587;BME280;28216;53.362;-6.288;2022-10-16T08:19:54;100494.84;;;8.78;98.49
42587;BME280;28216;53.362;-6.288;2022-10-16T08:22:19;100488.19;;;8.83;98.34
42587;BME280;28216;53.362;-6.288;2022-10-16T08:24:44;100484.28;;;8.87;98.57
42587;BME280;28216;53.362;-6.288;2022-10-16T08:27:10;100483.69;;;8.94;98.63
42587;BME280;28216;53.362;-6.288;2022-10-16T08:29:35;100482.41;;;8.98;98.60
42587;BME280;28216;53.362;-6.288;2022-10-16T08:32:01;100485.22;;;9.04;98.52
42587;BME280;28216;53.362;-6.288;2022-10-16T08:34:26;100484.44;;;9.12;98.22
42587;BME280;28216;53.362;-6.288;2022-10-16T08:36:55;100486.09;;;9.21;98.05
42587;BME280;28216;53.362;-6.288;2022-10-16T08:39:20;100483.38;;;9.31;98.14
42587;BME280;28216;53.362;-6.288;2022-10-16T08:47:21;100476.91;;;9.59;98.27
42587;BME280;28216;53.362;-6.288;2022-10-16T08:50:12;100484.34;;;9.72;97.92
42587;BME280;28216;53.362;-6.288;2022-10-16T08:52:43;100486.31;;;9.86;97.16
42587;BME280;28216;53.362;-6.288;2022-10-16T08:55:41;100490.44;;;9.97;97.15
42587;BME280;28216;53.362;-6.288;2022-10-16T08:58:12;100495.34;;;10.08;96.95
42587;BME280;28216;53.362;-6.288;2022-10-16T09:00:39;100497.81;;;10.17;96.49
42587;BME280;28216;53.362;-6.288;2022-10-16T09:08:45;100500.16;;;10.37;95.79
42587;BME280;28216;53.362;-6.288;2022-10-16T09:16:50;100503.28;;;10.48;95.51
42587;BME280;28216;53.362;-6.288;2022-10-16T09:19:39;100503.78;;;10.52;94.92
42587;BME280;28216;53.362;-6.288;2022-10-16T09:22:13;100513.75;;;10.57;94.77
42587;BME280;28216;53.362;-6.288;2022-10-16T09:24:39;100519.50;;;10.60;94.65
42587;BME280;28216;53.362;-6.288;2022-10-16T09:27:10;100525.06;;;10.65;94.19
42587;BME280;28216;53.362;-6.288;2022-10-16T09:29:36;100535.22;;;10.68;94.09
42587;BME280;28216;53.362;-6.288;2022-10-16T09:32:11;100543.91;;;10.69;93.65
42587;BME280;28216;53.362;-6.288;2022-10-16T09:34:41;100549.63;;;10.72;93.44
42587;BME280;28216;53.362;-6.288;2022-10-16T09:37:14;100552.09;;;10.74;93.40
42587;BME280;28216;53.362;-6.288;2022-10-16T09:39:46;100543.91;;;10.77;92.88
42587;BME280;28216;53.362;-6.288;2022-10-16T09:42:17;100546.34;;;10.78;92.79
42587;BME280;28216;53.362;-6.288;2022-10-16T09:44:48;100535.53;;;10.81;92.57
42587;BME280;28216;53.362;-6.288;2022-10-16T09:47:18;100537.66;;;10.86;92.55
42587;BME280;28216;53.362;-6.288;2022-10-16T09:50:13;100539.94;;;10.89;92.45
42587;BME280;28216;53.362;-6.288;2022-10-16T09:52:44;100532.56;;;10.93;92.05
42587;BME280;28216;53.362;-6.288;2022-10-16T09:55:16;100535.50;;;10.98;91.79
42587;BME280;28216;53.362;-6.288;2022-10-16T09:57:54;100534.81;;;11.04;91.27
42587;BME280;28216;53.362;-6.288;2022-10-16T10:00:23;100548.75;;;11.12;90.95
42587;BME280;28216;53.362;-6.288;2022-10-16T10:02:49;100546.63;;;11.16;90.37
42587;BME280;28216;53.362;-6.288;2022-10-16T10:05:21;100552.84;;;11.23;89.79
42587;BME280;28216;53.362;-6.288;2022-10-16T10:07:54;100548.06;;;11.27;89.47
42587;BME280;28216;53.362;-6.288;2022-10-16T10:10:30;100550.03;;;11.33;89.01
42587;BME280;28216;53.362;-6.288;2022-10-16T10:12:57;100547.53;;;11.39;88.48
42587;BME280;28216;53.362;-6.288;2022-10-16T10:15:24;100545.41;;;11.43;88.20
42587;BME280;28216;53.362;-6.288;2022-10-16T10:17:57;100543.59;;;11.43;87.45
42587;BME280;28216;53.362;-6.288;2022-10-16T10:20:34;100545.22;;;11.44;87.30
42587;BME280;28216;53.362;-6.288;2022-10-16T10:23:01;100534.56;;;11.46;86.99
42587;BME280;28216;53.362;-6.288;2022-10-16T10:25:49;100524.06;;;11.46;86.52
42587;BME280;28216;53.362;-6.288;2022-10-16T10:41:26;100523.56;;;11.42;85.16
42587;BME280;28216;53.362;-6.288;2022-10-16T10:44:16;100538.16;;;11.45;85.35
42587;BME280;28216;53.362;-6.288;2022-10-16T10:46:56;100539.81;;;11.46;85.05
42587;BME280;28216;53.362;-6.288;2022-10-16T10:49:39;100542.09;;;11.49;84.60
42587;BME280;28216;53.362;-6.288;2022-10-16T10:53:15;100541.25;;;11.57;84.39
42587;BME280;28216;53.362;-6.288;2022-10-16T10:55:31;100535.13;;;11.64;84.14
42587;BME280;28216;53.362;-6.288;2022-10-16T11:00:51;100552.13;;;11.76;83.50
42587;BME280;28216;53.362;-6.288;2022-10-16T11:06:22;100556.72;;;11.83;83.06
42587;BME280;28216;53.362;-6.288;2022-10-16T11:14:04;100559.53;;;11.81;81.97
42587;BME280;28216;53.362;-6.288;2022-10-16T11:16:59;100557.25;;;11.78;81.59
42587;BME280;28216;53.362;-6.288;2022-10-16T11:19:44;100553.94;;;11.76;81.58
42587;BME280;28216;53.362;-6.288;2022-10-16T11:22:17;100555.09;;;11.73;81.27
42587;BME280;28216;53.362;-6.288;2022-10-16T11:27:34;100575.00;;;11.68;80.45
42587;BME280;28216;53.362;-6.288;2022-10-16T11:30:04;100580.59;;;11.65;80.26
42587;BME280;28216;53.362;-6.288;2022-10-16T11:32:35;100583.06;;;11.66;79.86
42587;BME280;28216;53.362;-6.288;2022-10-16T11:35:25;100566.00;;;11.62;79.54
42587;BME280;28216;53.362;-6.288;2022-10-16T11:37:56;100565.66;;;11.65;79.73
42587;BME280;28216;53.362;-6.288;2022-10-16T11:43:10;100563.38;;;11.62;78.98
42587;BME280;28216;53.362;-6.288;2022-10-16T11:45:44;100560.56;;;11.64;78.75
42587;BME280;28216;53.362;-6.288;2022-10-16T11:50:51;100560.75;;;11.62;78.04
42587;BME280;28216;53.362;-6.288;2022-10-16T11:55:49;100554.38;;;11.57;77.55
42587;BME280;28216;53.362;-6.288;2022-10-16T11:58:37;100554.19;;;11.58;77.14
42587;BME280;28216;53.362;-6.288;2022-10-16T12:03:35;100548.94;;;11.58;76.94
42587;BME280;28216;53.362;-6.288;2022-10-16T12:08:50;100529.56;;;11.59;76.86
42587;BME280;28216;53.362;-6.288;2022-10-16T12:14:18;100512.81;;;11.60;76.29
42587;BME280;28216;53.362;-6.288;2022-10-16T12:16:51;100523.97;;;11.62;75.99
42587;BME280;28216;53.362;-6.288;2022-10-16T12:19:19;100517.75;;;11.63;76.14
42587;BME280;28216;53.362;-6.288;2022-10-16T12:21:45;100517.09;;;11.61;75.78
42587;BME280;28216;53.362;-6.288;2022-10-16T12:24:38;100515.47;;;11.60;75.75
42587;BME280;28216;53.362;-6.288;2022-10-16T12:27:35;100509.22;;;11.61;75.48
42587;BME280;28216;53.362;-6.288;2022-10-16T12:30:03;100519.38;;;11.64;75.37
42587;BME280;28216;53.362;-6.288;2022-10-16T12:32:36;100512.31;;;11.65;75.51
42587;BME280;28216;53.362;-6.288;2022-10-16T12:35:04;100511.66;;;11.63;75.05
42587;BME280;28216;53.362;-6.288;2022-10-16T12:37:35;100524.97;;;11.61;74.83
42587;BME280;28216;53.362;-6.288;2022-10-16T12:42:52;100541.25;;;11.57;74.99
42587;BME280;28216;53.362;-6.288;2022-10-16T12:47:52;100528.09;;;11.57;74.87
42587;BME280;28216;53.362;-6.288;2022-10-16T12:50:29;100534.69;;;11.53;74.65
42587;BME280;28216;53.362;-6.288;2022-10-16T12:52:58;100533.22;;;11.50;75.07
42587;BME280;28216;53.362;-6.288;2022-10-16T12:55:24;100525.53;;;11.49;74.89
42587;BME280;28216;53.362;-6.288;2022-10-16T13:00:45;100510.63;;;11.41;75.01
42587;BME280;28216;53.362;-6.288;2022-10-16T13:03:30;100498.81;;;11.37;74.55
42587;BME280;28216;53.362;-6.288;2022-10-16T13:06:35;100488.84;;;11.32;74.00
42587;BME280;28216;53.362;-6.288;2022-10-16T13:09:11;100479.00;;;11.34;74.96
42587;BME280;28216;53.362;-6.288;2022-10-16T13:14:53;100475.72;;;11.32;75.42
42587;BME280;28216;53.362;-6.288;2022-10-16T13:28:00;100445.22;;;11.31;75.07
42587;BME280;28216;53.362;-6.288;2022-10-16T13:30:28;100442.59;;;11.31;75.40
42587;BME280;28216;53.362;-6.288;2022-10-16T13:33:13;100434.88;;;11.30;75.55
42587;BME280;28216;53.362;-6.288;2022-10-16T13:35:51;100439.31;;;11.29;75.29
42587;BME280;28216;53.362;-6.288;2022-10-16T13:38:19;100443.28;;;11.25;75.51
42587;BME280;28216;53.362;-6.288;2022-10-16T13:40:55;100430.31;;;11.24;75.78
42587;BME280;28216;53.362;-6.288;2022-10-16T13:43:36;100436.91;;;11.20;76.49
42587;BME280;28216;53.362;-6.288;2022-10-16T13:46:11;100438.06;;;11.17;76.62
42587;BME280;28216;53.362;-6.288;2022-10-16T13:48:37;100434.63;;;11.17;77.08
42587;BME280;28216;53.362;-6.288;2022-10-16T13:53:38;100431.50;;;11.13;77.98
42587;BME280;28216;53.362;-6.288;2022-10-16T13:56:09;100412.31;;;11.12;78.61
42587;BME280;28216;53.362;-6.288;2022-10-16T13:58:36;100381.00;;;11.11;78.86
42587;BME280;28216;53.362;-6.288;2022-10-16T14:01:03;100374.28;;;11.08;79.45
42587;BME280;28216;53.362;-6.288;2022-10-16T14:03:31;100371.19;;;11.05;80.04
42587;BME280;28216;53.362;-6.288;2022-10-16T14:06:00;100367.75;;;11.04;81.01
42587;BME280;28216;53.362;-6.288;2022-10-16T14:08:27;100370.53;;;11.03;81.95
42587;BME280;28216;53.362;-6.288;2022-10-16T14:10:56;100361.03;;;11.02;82.57
42587;BME280;28216;53.362;-6.288;2022-10-16T14:13:31;100366.28;;;11.02;83.34
42587;BME280;28216;53.362;-6.288;2022-10-16T14:16:06;100355.78;;;11.02;84.41
42587;BME280;28216;53.362;-6.288;2022-10-16T14:18:32;100363.81;;;11.00;85.74
42587;BME280;28216;53.362;-6.288;2022-10-16T14:21:04;100359.41;;;11.01;86.57
42587;BME280;28216;53.362;-6.288;2022-10-16T14:23:34;100343.50;;;11.02;87.06
42587;BME280;28216;53.362;-6.288;2022-10-16T14:28:36;100334.44;;;11.05;88.17
42587;BME280;28216;53.362;-6.288;2022-10-16T14:31:25;100316.56;;;11.08;88.70
42587;BME280;28216;53.362;-6.288;2022-10-16T14:33:51;100323.91;;;11.13;88.89
42587;BME280;28216;53.362;-6.288;2022-10-16T14:36:17;100312.28;;;11.16;88.83
42587;BME280;28216;53.362;-6.288;2022-10-16T14:41:25;100308.50;;;11.18;89.46
42587;BME280;28216;53.362;-6.288;2022-10-16T14:43:53;100307.31;;;11.21;89.75
42587;BME280;28216;53.362;-6.288;2022-10-16T14:46:22;100307.63;;;11.26;89.59
42587;BME280;28216;53.362;-6.288;2022-10-16T14:49:18;100312.53;;;11.29;89.55